sensor_id;sensor_type;location;lat;lon;timestamp;temperature;humidity
32506;DHT22;18955;51.224;8.482;2023-07-09T00:02:18;21.80;59.90
32506;DHT22;18955;51.224;8.482;2023-07-09T00:04:44;21.80;59.90
32506;DHT22;18955;51.224;8.482;2023-07-09T00:07:31;21.70;60.00
32506;DHT22;18955;51.224;8.482;2023-07-09T00:09:58;21.60;60.00
32506;DHT22;18955;51.224;8.482;2023-07-09T00:12:25;21.60;60.00
32506;DHT22;18955;51.224;8.482;2023-07-09T00:14:51;21.60;60.00
32506;DHT22;18955;51.224;8.482;2023-07-09T00:17:30;21.50;60.30
32506;DHT22;18955;51.224;8.482;2023-07-09T00:19:59;21.50;60.20
32506;DHT22;18955;51.224;8.482;2023-07-09T00:26:14;21.50;60.20
32506;DHT22;18955;51.224;8.482;2023-07-09T00:28:41;21.40;60.30
32506;DHT22;18955;51.224;8.482;2023-07-09T00:31:12;21.40;60.40
32506;DHT22;18955;51.224;8.482;2023-07-09T00:33:41;21.30;60.30
32506;DHT22;18955;51.224;8.482;2023-07-09T00:36:16;21.30;60.30
32506;DHT22;18955;51.224;8.482;2023-07-09T00:38:43;21.20;60.30
32506;DHT22;18955;51.224;8.482;2023-07-09T00:41:16;21.20;60.30
32506;DHT22;18955;51.224;8.482;2023-07-09T00:43:45;21.20;60.30
32506;DHT22;18955;51.224;8.482;2023-07-09T00:48:45;21.10;60.40
32506;DHT22;18955;51.224;8.482;2023-07-09T00:51:14;21.10;60.50
32506;DHT22;18955;51.224;8.482;2023-07-09T00:53:44;21.00;61.10
32506;DHT22;18955;51.224;8.482;2023-07-09T00:56:18;21.00;60.60
32506;DHT22;18955;51.224;8.482;2023-07-09T00:58:47;20.90;60.20
32506;DHT22;18955;51.224;8.482;2023-07-09T01:01:17;20.90;60.40
32506;DHT22;18955;51.224;8.482;2023-07-09T01:03:53;20.90;60.50
32506;DHT22;18955;51.224;8.482;2023-07-09T01:06:28;20.90;60.40
32506;DHT22;18955;51.224;8.482;2023-07-09T01:08:59;20.80;60.60
32506;DHT22;18955;51.224;8.482;2023-07-09T01:11:27;20.80;60.60
32506;DHT22;18955;51.224;8.482;2023-07-09T01:13:56;20.70;60.70
32506;DHT22;18955;51.224;8.482;2023-07-09T01:16:30;20.70;60.60
32506;DHT22;18955;51.224;8.482;2023-07-09T01:18:57;20.70;60.60
32506;DHT22;18955;51.224;8.482;2023-07-09T01:21:24;20.60;60.70
32506;DHT22;18955;51.224;8.482;2023-07-09T01:23:50;20.60;60.80
32506;DHT22;18955;51.224;8.482;2023-07-09T01:26:21;20.50;60.80
32506;DHT22;18955;51.224;8.482;2023-07-09T01:28:52;20.50;61.00
32506;DHT22;18955;51.224;8.482;2023-07-09T01:31:18;20.50;60.80
32506;DHT22;18955;51.224;8.482;2023-07-09T01:33:46;20.40;60.70
32506;DHT22;18955;51.224;8.482;2023-07-09T01:36:18;20.40;61.30
32506;DHT22;18955;51.224;8.482;2023-07-09T01:38:46;20.40;61.00
32506;DHT22;18955;51.224;8.482;2023-07-09T01:41:13;20.40;60.70
32506;DHT22;18955;51.224;8.482;2023-07-09T01:43:40;20.30;61.00
32506;DHT22;18955;51.224;8.482;2023-07-09T01:46:11;20.30;61.20
32506;DHT22;18955;51.224;8.482;2023-07-09T01:48:39;20.20;60.90
32506;DHT22;18955;51.224;8.482;2023-07-09T01:51:11;20.20;61.10
32506;DHT22;18955;51.224;8.482;2023-07-09T01:53:38;20.20;61.20
32506;DHT22;18955;51.224;8.482;2023-07-09T01:56:07;20.10;61.20
32506;DHT22;18955;51.224;8.482;2023-07-09T01:58:34;20.10;61.10
32506;DHT22;18955;51.224;8.482;2023-07-09T02:01:00;20.00;61.30
32506;DHT22;18955;51.224;8.482;2023-07-09T02:03:26;20.00;61.50
32506;DHT22;18955;51.224;8.482;2023-07-09T02:05:54;20.00;61.40
32506;DHT22;18955;51.224;8.482;2023-07-09T02:08:21;19.90;61.40
32506;DHT22;18955;51.224;8.482;2023-07-09T02:10:48;19.90;61.20
32506;DHT22;18955;51.224;8.482;2023-07-09T02:13:16;19.90;61.40
32506;DHT22;18955;51.224;8.482;2023-07-09T02:15:43;19.90;61.60
32506;DHT22;18955;51.224;8.482;2023-07-09T02:18:11;19.80;61.60
32506;DHT22;18955;51.224;8.482;2023-07-09T02:20:38;19.80;61.60
32506;DHT22;18955;51.224;8.482;2023-07-09T02:23:07;19.70;61.30
32506;DHT22;18955;51.224;8.482;2023-07-09T02:25:34;19.70;61.60
32506;DHT22;18955;51.224;8.482;2023-07-09T02:28:00;19.70;61.30
32506;DHT22;18955;51.224;8.482;2023-07-09T02:30:26;19.70;61.60
32506;DHT22;18955;51.224;8.482;2023-07-09T02:32:53;19.70;61.80
32506;DHT22;18955;51.224;8.482;2023-07-09T02:35:23;19.60;61.90
32506;DHT22;18955;51.224;8.482;2023-07-09T02:37:49;19.60;61.80
32506;DHT22;18955;51.224;8.482;2023-07-09T02:40:16;19.60;61.80
32506;DHT22;18955;51.224;8.482;2023-07-09T02:42:42;19.50;61.90
32506;DHT22;18955;51.224;8.482;2023-07-09T02:45:09;19.50;62.00
32506;DHT22;18955;51.224;8.482;2023-07-09T02:47:36;19.50;61.90
32506;DHT22;18955;51.224;8.482;2023-07-09T02:50:03;19.50;61.80
32506;DHT22;18955;51.224;8.482;2023-07-09T02:52:29;19.40;62.10
32506;DHT22;18955;51.224;8.482;2023-07-09T02:54:56;19.40;62.20
32506;DHT22;18955;51.224;8.482;2023-07-09T02:57:22;19.30;62.20
32506;DHT22;18955;51.224;8.482;2023-07-09T02:59:48;19.30;62.00
32506;DHT22;18955;51.224;8.482;2023-07-09T03:02:14;19.30;62.40
32506;DHT22;18955;51.224;8.482;2023-07-09T03:04:40;19.30;62.20
32506;DHT22;18955;51.224;8.482;2023-07-09T03:07:07;19.20;62.20
32506;DHT22;18955;51.224;8.482;2023-07-09T03:09:33;19.20;62.00
32506;DHT22;18955;51.224;8.482;2023-07-09T03:11:59;19.20;62.50
32506;DHT22;18955;51.224;8.482;2023-07-09T03:14:25;19.20;62.50
32506;DHT22;18955;51.224;8.482;2023-07-09T03:16:52;19.20;62.20
32506;DHT22;18955;51.224;8.482;2023-07-09T03:19:18;19.10;62.70
32506;DHT22;18955;51.224;8.482;2023-07-09T03:21:44;19.10;62.60
32506;DHT22;18955;51.224;8.482;2023-07-09T03:24:11;19.10;62.80
32506;DHT22;18955;51.224;8.482;2023-07-09T03:26:37;19.00;62.80
32506;DHT22;18955;51.224;8.482;2023-07-09T03:29:03;19.00;62.80
32506;DHT22;18955;51.224;8.482;2023-07-09T03:31:30;19.00;62.90
32506;DHT22;18955;51.224;8.482;2023-07-09T03:33:56;18.90;62.90
32506;DHT22;18955;51.224;8.482;2023-07-09T03:36:22;18.90;63.20
32506;DHT22;18955;51.224;8.482;2023-07-09T03:38:48;18.90;63.10
32506;DHT22;18955;51.224;8.482;2023-07-09T03:41:15;18.80;62.90
32506;DHT22;18955;51.224;8.482;2023-07-09T03:43:41;18.80;63.10
32506;DHT22;18955;51.224;8.482;2023-07-09T03:46:07;18.80;62.70
32506;DHT22;18955;51.224;8.482;2023-07-09T03:48:34;18.80;63.40
32506;DHT22;18955;51.224;8.482;2023-07-09T03:51:00;18.80;63.10
32506;DHT22;18955;51.224;8.482;2023-07-09T03:53:26;18.70;63.30
32506;DHT22;18955;51.224;8.482;2023-07-09T03:55:54;18.70;63.50
32506;DHT22;18955;51.224;8.482;2023-07-09T03:58:21;18.70;63.50
32506;DHT22;18955;51.224;8.482;2023-07-09T04:00:47;18.70;63.60
32506;DHT22;18955;51.224;8.482;2023-07-09T04:03:14;18.70;63.80
32506;DHT22;18955;51.224;8.482;2023-07-09T04:05:40;18.60;64.00
32506;DHT22;18955;51.224;8.482;2023-07-09T04:08:06;18.60;64.00
32506;DHT22;18955;51.224;8.482;2023-07-09T04:10:32;18.60;64.10
32506;DHT22;18955;51.224;8.482;2023-07-09T04:12:59;18.60;64.10
32506;DHT22;18955;51.224;8.482;2023-07-09T04:15:25;18.50;64.10
32506;DHT22;18955;51.224;8.482;2023-07-09T04:17:51;18.50;64.00
32506;DHT22;18955;51.224;8.482;2023-07-09T04:20:18;18.50;64.30
32506;DHT22;18955;51.224;8.482;2023-07-09T04:22:44;18.50;64.30
32506;DHT22;18955;51.224;8.482;2023-07-09T04:25:11;18.50;64.50
32506;DHT22;18955;51.224;8.482;2023-07-09T04:27:38;18.40;64.90
32506;DHT22;18955;51.224;8.482;2023-07-09T04:30:06;18.40;64.80
32506;DHT22;18955;51.224;8.482;2023-07-09T04:32:34;18.40;64.80
32506;DHT22;18955;51.224;8.482;2023-07-09T04:35:03;18.40;65.00
32506;DHT22;18955;51.224;8.482;2023-07-09T04:37:32;18.40;64.80
32506;DHT22;18955;51.224;8.482;2023-07-09T04:39:59;18.30;65.00
32506;DHT22;18955;51.224;8.482;2023-07-09T04:42:25;18.30;64.90
32506;DHT22;18955;51.224;8.482;2023-07-09T04:44:51;18.30;65.20
32506;DHT22;18955;51.224;8.482;2023-07-09T04:47:17;18.30;64.70
32506;DHT22;18955;51.224;8.482;2023-07-09T04:49:43;18.30;65.20
32506;DHT22;18955;51.224;8.482;2023-07-09T04:52:10;18.30;65.40
32506;DHT22;18955;51.224;8.482;2023-07-09T04:54:40;18.30;65.30
32506;DHT22;18955;51.224;8.482;2023-07-09T04:57:10;18.20;65.40
32506;DHT22;18955;51.224;8.482;2023-07-09T04:59:36;18.20;65.40
32506;DHT22;18955;51.224;8.482;2023-07-09T05:02:03;18.20;66.00
32506;DHT22;18955;51.224;8.482;2023-07-09T05:04:30;18.20;65.60
32506;DHT22;18955;51.224;8.482;2023-07-09T05:06:57;18.20;66.70
32506;DHT22;18955;51.224;8.482;2023-07-09T05:09:24;18.20;65.90
32506;DHT22;18955;51.224;8.482;2023-07-09T05:11:51;18.20;66.00
32506;DHT22;18955;51.224;8.482;2023-07-09T05:14:17;18.20;65.70
32506;DHT22;18955;51.224;8.482;2023-07-09T05:16:44;18.20;65.90
32506;DHT22;18955;51.224;8.482;2023-07-09T05:19:11;18.20;66.10
32506;DHT22;18955;51.224;8.482;2023-07-09T05:21:38;18.20;66.40
32506;DHT22;18955;51.224;8.482;2023-07-09T05:24:04;18.10;66.50
32506;DHT22;18955;51.224;8.482;2023-07-09T05:26:31;18.10;66.60
32506;DHT22;18955;51.224;8.482;2023-07-09T05:28:57;18.10;66.90
32506;DHT22;18955;51.224;8.482;2023-07-09T05:31:23;18.10;66.70
32506;DHT22;18955;51.224;8.482;2023-07-09T05:33:49;18.10;66.60
32506;DHT22;18955;51.224;8.482;2023-07-09T05:36:15;18.10;66.50
32506;DHT22;18955;51.224;8.482;2023-07-09T05:38:43;18.10;67.00
32506;DHT22;18955;51.224;8.482;2023-07-09T05:41:09;18.10;66.80
32506;DHT22;18955;51.224;8.482;2023-07-09T05:43:35;18.10;67.20
32506;DHT22;18955;51.224;8.482;2023-07-09T05:46:04;18.10;66.70
32506;DHT22;18955;51.224;8.482;2023-07-09T05:48:31;18.10;66.60
32506;DHT22;18955;51.224;8.482;2023-07-09T05:50:57;18.10;66.80
32506;DHT22;18955;51.224;8.482;2023-07-09T05:53:23;18.20;66.80
32506;DHT22;18955;51.224;8.482;2023-07-09T05:55:53;18.20;67.00
32506;DHT22;18955;51.224;8.482;2023-07-09T05:58:20;18.20;67.20
32506;DHT22;18955;51.224;8.482;2023-07-09T06:00:50;18.20;67.50
32506;DHT22;18955;51.224;8.482;2023-07-09T06:03:24;18.30;66.70
32506;DHT22;18955;51.224;8.482;2023-07-09T06:05:50;18.30;67.50
32506;DHT22;18955;51.224;8.482;2023-07-09T06:08:21;18.30;67.30
32506;DHT22;18955;51.224;8.482;2023-07-09T06:10:59;18.40;67.30
32506;DHT22;18955;51.224;8.482;2023-07-09T06:13:26;18.40;67.10
32506;DHT22;18955;51.224;8.482;2023-07-09T06:15:54;18.50;66.70
32506;DHT22;18955;51.224;8.482;2023-07-09T06:18:22;18.50;66.80
32506;DHT22;18955;51.224;8.482;2023-07-09T06:20:50;18.60;66.80
32506;DHT22;18955;51.224;8.482;2023-07-09T06:23:18;18.60;67.40
32506;DHT22;18955;51.224;8.482;2023-07-09T06:25:45;18.70;66.60
32506;DHT22;18955;51.224;8.482;2023-07-09T06:28:18;18.80;66.60
32506;DHT22;18955;51.224;8.482;2023-07-09T06:30:45;18.80;66.30
32506;DHT22;18955;51.224;8.482;2023-07-09T06:33:13;18.90;67.10
32506;DHT22;18955;51.224;8.482;2023-07-09T06:35:47;18.90;66.80
32506;DHT22;18955;51.224;8.482;2023-07-09T06:38:14;19.00;67.20
32506;DHT22;18955;51.224;8.482;2023-07-09T06:40:40;19.00;66.90
32506;DHT22;18955;51.224;8.482;2023-07-09T06:43:06;19.10;67.30
32506;DHT22;18955;51.224;8.482;2023-07-09T06:45:38;19.20;67.10
32506;DHT22;18955;51.224;8.482;2023-07-09T06:48:04;19.20;67.00
32506;DHT22;18955;51.224;8.482;2023-07-09T06:50:34;19.30;67.30
32506;DHT22;18955;51.224;8.482;2023-07-09T06:53:00;19.40;67.70
32506;DHT22;18955;51.224;8.482;2023-07-09T06:55:27;19.40;68.10
32506;DHT22;18955;51.224;8.482;2023-07-09T06:57:53;19.40;68.40
32506;DHT22;18955;51.224;8.482;2023-07-09T07:00:19;19.50;69.00
32506;DHT22;18955;51.224;8.482;2023-07-09T07:02:45;19.50;68.50
32506;DHT22;18955;51.224;8.482;2023-07-09T07:05:12;19.60;68.30
32506;DHT22;18955;51.224;8.482;2023-07-09T07:07:38;19.70;68.40
32506;DHT22;18955;51.224;8.482;2023-07-09T07:10:04;19.70;68.50
32506;DHT22;18955;51.224;8.482;2023-07-09T07:12:44;19.80;68.80
32506;DHT22;18955;51.224;8.482;2023-07-09T07:15:11;19.80;69.60
32506;DHT22;18955;51.224;8.482;2023-07-09T07:17:39;19.90;69.40
32506;DHT22;18955;51.224;8.482;2023-07-09T07:20:06;19.90;70.00
32506;DHT22;18955;51.224;8.482;2023-07-09T07:22:33;20.00;71.00
32506;DHT22;18955;51.224;8.482;2023-07-09T07:24:59;20.10;70.30
32506;DHT22;18955;51.224;8.482;2023-07-09T07:27:25;20.20;70.10
32506;DHT22;18955;51.224;8.482;2023-07-09T07:29:51;20.20;70.10
32506;DHT22;18955;51.224;8.482;2023-07-09T07:32:18;20.20;70.30
32506;DHT22;18955;51.224;8.482;2023-07-09T07:34:44;20.20;70.30
32506;DHT22;18955;51.224;8.482;2023-07-09T07:37:11;20.30;70.10
32506;DHT22;18955;51.224;8.482;2023-07-09T07:39:38;20.40;70.70
32506;DHT22;18955;51.224;8.482;2023-07-09T07:42:04;20.40;71.40
32506;DHT22;18955;51.224;8.482;2023-07-09T07:44:30;20.50;71.70
32506;DHT22;18955;51.224;8.482;2023-07-09T07:46:57;20.60;71.00
32506;DHT22;18955;51.224;8.482;2023-07-09T07:49:23;20.60;71.30
32506;DHT22;18955;51.224;8.482;2023-07-09T07:51:49;20.90;77.80
32506;DHT22;18955;51.224;8.482;2023-07-09T07:54:15;21.30;75.50
32506;DHT22;18955;51.224;8.482;2023-07-09T07:56:44;21.60;75.90
32506;DHT22;18955;51.224;8.482;2023-07-09T07:59:10;21.80;75.50
32506;DHT22;18955;51.224;8.482;2023-07-09T08:01:36;22.00;73.40
32506;DHT22;18955;51.224;8.482;2023-07-09T08:04:02;22.10;72.70
32506;DHT22;18955;51.224;8.482;2023-07-09T08:06:29;22.20;70.30
32506;DHT22;18955;51.224;8.482;2023-07-09T08:08:58;22.40;68.70
32506;DHT22;18955;51.224;8.482;2023-07-09T08:11:24;22.50;70.00
32506;DHT22;18955;51.224;8.482;2023-07-09T08:13:50;22.60;70.60
32506;DHT22;18955;51.224;8.482;2023-07-09T08:16:17;22.60;70.40
32506;DHT22;18955;51.224;8.482;2023-07-09T08:18:43;22.80;70.40
32506;DHT22;18955;51.224;8.482;2023-07-09T08:21:09;22.90;68.50
32506;DHT22;18955;51.224;8.482;2023-07-09T08:23:35;23.00;69.80
32506;DHT22;18955;51.224;8.482;2023-07-09T08:26:03;23.00;67.60
32506;DHT22;18955;51.224;8.482;2023-07-09T08:28:30;23.10;68.00
32506;DHT22;18955;51.224;8.482;2023-07-09T08:30:56;23.20;69.50
32506;DHT22;18955;51.224;8.482;2023-07-09T08:33:23;23.30;69.80
32506;DHT22;18955;51.224;8.482;2023-07-09T08:35:50;23.40;65.90
32506;DHT22;18955;51.224;8.482;2023-07-09T08:38:17;23.50;67.80
32506;DHT22;18955;51.224;8.482;2023-07-09T08:40:58;23.60;68.00
32506;DHT22;18955;51.224;8.482;2023-07-09T08:46:25;23.60;67.50
32506;DHT22;18955;51.224;8.482;2023-07-09T08:48:54;23.60;63.40
32506;DHT22;18955;51.224;8.482;2023-07-09T08:53:56;23.80;61.30
32506;DHT22;18955;51.224;8.482;2023-07-09T08:56:24;23.70;63.60
32506;DHT22;18955;51.224;8.482;2023-07-09T08:58:53;23.90;63.00
32506;DHT22;18955;51.224;8.482;2023-07-09T09:01:24;24.00;64.10
32506;DHT22;18955;51.224;8.482;2023-07-09T09:04:13;23.90;62.60
32506;DHT22;18955;51.224;8.482;2023-07-09T09:06:43;23.90;63.60
32506;DHT22;18955;51.224;8.482;2023-07-09T09:11:57;24.10;62.00
32506;DHT22;18955;51.224;8.482;2023-07-09T09:14:38;24.10;63.30
32506;DHT22;18955;51.224;8.482;2023-07-09T09:17:13;24.20;62.00
32506;DHT22;18955;51.224;8.482;2023-07-09T09:19:52;24.30;61.40
32506;DHT22;18955;51.224;8.482;2023-07-09T09:22:23;24.30;60.60
32506;DHT22;18955;51.224;8.482;2023-07-09T09:25:11;24.30;61.30
32506;DHT22;18955;51.224;8.482;2023-07-09T09:27:42;24.30;59.80
32506;DHT22;18955;51.224;8.482;2023-07-09T09:30:14;24.40;59.10
32506;DHT22;18955;51.224;8.482;2023-07-09T09:33:02;24.40;59.20
32506;DHT22;18955;51.224;8.482;2023-07-09T09:35:33;24.50;58.80
32506;DHT22;18955;51.224;8.482;2023-07-09T09:38:00;24.50;60.00
32506;DHT22;18955;51.224;8.482;2023-07-09T09:40:28;24.50;61.60
32506;DHT22;18955;51.224;8.482;2023-07-09T09:42:58;24.70;58.40
32506;DHT22;18955;51.224;8.482;2023-07-09T09:45:32;24.80;58.90
32506;DHT22;18955;51.224;8.482;2023-07-09T09:48:01;24.70;59.30
32506;DHT22;18955;51.224;8.482;2023-07-09T09:50:32;24.70;59.20
32506;DHT22;18955;51.224;8.482;2023-07-09T09:52:59;24.70;58.40
32506;DHT22;18955;51.224;8.482;2023-07-09T09:55:29;24.70;59.10
32506;DHT22;18955;51.224;8.482;2023-07-09T09:57:56;24.70;59.70
32506;DHT22;18955;51.224;8.482;2023-07-09T10:00:25;24.80;59.60
32506;DHT22;18955;51.224;8.482;2023-07-09T10:03:00;24.70;58.60
32506;DHT22;18955;51.224;8.482;2023-07-09T10:05:34;24.80;57.00
32506;DHT22;18955;51.224;8.482;2023-07-09T10:08:35;24.90;55.20
32506;DHT22;18955;51.224;8.482;2023-07-09T10:11:21;24.90;56.20
32506;DHT22;18955;51.224;8.482;2023-07-09T10:13:52;25.00;57.40
32506;DHT22;18955;51.224;8.482;2023-07-09T10:16:29;25.00;57.50
32506;DHT22;18955;51.224;8.482;2023-07-09T10:19:11;25.00;57.40
32506;DHT22;18955;51.224;8.482;2023-07-09T10:21:47;25.00;57.80
32506;DHT22;18955;51.224;8.482;2023-07-09T10:24:45;25.00;57.40
32506;DHT22;18955;51.224;8.482;2023-07-09T10:27:18;25.10;57.90
32506;DHT22;18955;51.224;8.482;2023-07-09T10:30:17;25.20;58.50
32506;DHT22;18955;51.224;8.482;2023-07-09T10:35:53;25.40;57.80
32506;DHT22;18955;51.224;8.482;2023-07-09T10:41:02;25.50;56.90
32506;DHT22;18955;51.224;8.482;2023-07-09T10:43:41;25.50;57.80
32506;DHT22;18955;51.224;8.482;2023-07-09T10:46:20;25.50;58.90
32506;DHT22;18955;51.224;8.482;2023-07-09T10:48:50;25.50;57.60
32506;DHT22;18955;51.224;8.482;2023-07-09T10:53:51;25.60;55.40
32506;DHT22;18955;51.224;8.482;2023-07-09T10:56:27;25.70;56.30
32506;DHT22;18955;51.224;8.482;2023-07-09T10:59:04;25.60;56.90
32506;DHT22;18955;51.224;8.482;2023-07-09T11:01:41;25.70;56.80
32506;DHT22;18955;51.224;8.482;2023-07-09T11:04:33;25.80;57.20
32506;DHT22;18955;51.224;8.482;2023-07-09T11:07:03;25.60;57.60
32506;DHT22;18955;51.224;8.482;2023-07-09T11:09:35;25.60;57.90
32506;DHT22;18955;51.224;8.482;2023-07-09T11:12:24;25.60;57.80
32506;DHT22;18955;51.224;8.482;2023-07-09T11:14:58;25.70;58.50
32506;DHT22;18955;51.224;8.482;2023-07-09T11:17:27;25.70;57.50
32506;DHT22;18955;51.224;8.482;2023-07-09T11:19:56;25.70;56.40
32506;DHT22;18955;51.224;8.482;2023-07-09T11:22:38;25.80;55.70
32506;DHT22;18955;51.224;8.482;2023-07-09T11:27:51;26.00;56.10
32506;DHT22;18955;51.224;8.482;2023-07-09T11:32:52;26.10;57.20
32506;DHT22;18955;51.224;8.482;2023-07-09T11:35:26;26.10;56.00
32506;DHT22;18955;51.224;8.482;2023-07-09T11:37:54;26.00;56.80
32506;DHT22;18955;51.224;8.482;2023-07-09T11:40:22;26.00;56.50
32506;DHT22;18955;51.224;8.482;2023-07-09T11:42:56;26.10;55.40
32506;DHT22;18955;51.224;8.482;2023-07-09T11:45:32;26.10;55.20
32506;DHT22;18955;51.224;8.482;2023-07-09T11:50:48;26.10;56.10
32506;DHT22;18955;51.224;8.482;2023-07-09T11:53:46;26.10;56.80
32506;DHT22;18955;51.224;8.482;2023-07-09T11:56:13;26.10;55.70
32506;DHT22;18955;51.224;8.482;2023-07-09T11:58:50;26.10;56.10
32506;DHT22;18955;51.224;8.482;2023-07-09T12:01:20;26.00;55.60
32506;DHT22;18955;51.224;8.482;2023-07-09T12:03:47;26.10;56.10
32506;DHT22;18955;51.224;8.482;2023-07-09T12:06:18;26.10;55.60
32506;DHT22;18955;51.224;8.482;2023-07-09T12:08:46;26.20;56.00
32506;DHT22;18955;51.224;8.482;2023-07-09T12:11:30;26.40;54.70
32506;DHT22;18955;51.224;8.482;2023-07-09T12:14:04;26.30;55.20
32506;DHT22;18955;51.224;8.482;2023-07-09T12:16:34;26.40;53.70
32506;DHT22;18955;51.224;8.482;2023-07-09T12:19:00;26.40;53.50
32506;DHT22;18955;51.224;8.482;2023-07-09T12:21:27;26.50;54.90
32506;DHT22;18955;51.224;8.482;2023-07-09T12:23:55;26.50;53.40
32506;DHT22;18955;51.224;8.482;2023-07-09T12:26:24;26.60;52.60
32506;DHT22;18955;51.224;8.482;2023-07-09T12:28:55;26.70;52.70
32506;DHT22;18955;51.224;8.482;2023-07-09T12:31:29;26.60;52.30
32506;DHT22;18955;51.224;8.482;2023-07-09T12:33:57;26.80;52.50
32506;DHT22;18955;51.224;8.482;2023-07-09T12:36:25;26.70;51.60
32506;DHT22;18955;51.224;8.482;2023-07-09T12:38:57;26.70;49.20
32506;DHT22;18955;51.224;8.482;2023-07-09T12:41:39;26.70;51.00
32506;DHT22;18955;51.224;8.482;2023-07-09T12:44:18;26.70;50.00
32506;DHT22;18955;51.224;8.482;2023-07-09T12:46:46;26.70;52.00
32506;DHT22;18955;51.224;8.482;2023-07-09T12:49:24;26.80;51.90
32506;DHT22;18955;51.224;8.482;2023-07-09T12:51:57;26.80;52.80
32506;DHT22;18955;51.224;8.482;2023-07-09T12:54:24;26.80;53.70
32506;DHT22;18955;51.224;8.482;2023-07-09T12:56:52;26.90;53.70
32506;DHT22;18955;51.224;8.482;2023-07-09T12:59:22;27.00;52.70
32506;DHT22;18955;51.224;8.482;2023-07-09T13:02:37;27.00;50.80
32506;DHT22;18955;51.224;8.482;2023-07-09T13:04:38;27.10;52.30
32506;DHT22;18955;51.224;8.482;2023-07-09T13:07:05;27.30;49.70
32506;DHT22;18955;51.224;8.482;2023-07-09T13:09:31;27.50;49.10
32506;DHT22;18955;51.224;8.482;2023-07-09T13:11:58;27.30;50.60
32506;DHT22;18955;51.224;8.482;2023-07-09T13:14:30;27.40;51.40
32506;DHT22;18955;51.224;8.482;2023-07-09T13:17:04;27.20;51.90
32506;DHT22;18955;51.224;8.482;2023-07-09T13:19:31;27.20;52.90
32506;DHT22;18955;51.224;8.482;2023-07-09T13:21:57;27.30;52.70
32506;DHT22;18955;51.224;8.482;2023-07-09T13:24:27;27.30;53.60
32506;DHT22;18955;51.224;8.482;2023-07-09T13:26:54;27.20;50.90
32506;DHT22;18955;51.224;8.482;2023-07-09T13:29:20;27.20;51.40
32506;DHT22;18955;51.224;8.482;2023-07-09T13:31:47;27.20;52.20
32506;DHT22;18955;51.224;8.482;2023-07-09T13:34:24;27.20;53.00
32506;DHT22;18955;51.224;8.482;2023-07-09T13:36:52;27.10;53.20
32506;DHT22;18955;51.224;8.482;2023-07-09T13:39:20;27.10;51.50
32506;DHT22;18955;51.224;8.482;2023-07-09T13:41:48;27.10;52.30
32506;DHT22;18955;51.224;8.482;2023-07-09T13:44:21;27.10;53.00
32506;DHT22;18955;51.224;8.482;2023-07-09T13:46:47;27.10;54.60
32506;DHT22;18955;51.224;8.482;2023-07-09T13:49:18;27.20;51.00
32506;DHT22;18955;51.224;8.482;2023-07-09T13:51:47;27.30;51.80
32506;DHT22;18955;51.224;8.482;2023-07-09T13:56:45;27.30;54.00
32506;DHT22;18955;51.224;8.482;2023-07-09T13:59:17;27.30;53.20
32506;DHT22;18955;51.224;8.482;2023-07-09T14:01:45;27.40;50.80
32506;DHT22;18955;51.224;8.482;2023-07-09T14:04:14;27.30;51.90
32506;DHT22;18955;51.224;8.482;2023-07-09T14:06:41;27.30;52.00
32506;DHT22;18955;51.224;8.482;2023-07-09T14:09:09;27.30;53.20
32506;DHT22;18955;51.224;8.482;2023-07-09T14:12:02;27.20;54.60
32506;DHT22;18955;51.224;8.482;2023-07-09T14:14:32;27.20;54.40
32506;DHT22;18955;51.224;8.482;2023-07-09T14:16:59;27.20;55.30
32506;DHT22;18955;51.224;8.482;2023-07-09T14:19:26;27.20;56.20
32506;DHT22;18955;51.224;8.482;2023-07-09T14:21:53;27.20;57.10
32506;DHT22;18955;51.224;8.482;2023-07-09T14:24:20;27.10;58.70
32506;DHT22;18955;51.224;8.482;2023-07-09T14:26:48;27.10;59.70
32506;DHT22;18955;51.224;8.482;2023-07-09T14:29:14;27.10;60.10
32506;DHT22;18955;51.224;8.482;2023-07-09T14:31:41;27.10;60.90
32506;DHT22;18955;51.224;8.482;2023-07-09T14:34:34;27.00;61.00
32506;DHT22;18955;51.224;8.482;2023-07-09T14:37:00;26.90;62.00
32506;DHT22;18955;51.224;8.482;2023-07-09T14:39:28;26.90;62.00
32506;DHT22;18955;51.224;8.482;2023-07-09T14:41:55;26.80;61.00
32506;DHT22;18955;51.224;8.482;2023-07-09T14:44:28;26.80;58.70
32506;DHT22;18955;51.224;8.482;2023-07-09T14:46:56;26.70;59.20
32506;DHT22;18955;51.224;8.482;2023-07-09T14:49:23;26.70;59.10
32506;DHT22;18955;51.224;8.482;2023-07-09T14:51:50;26.60;58.60
32506;DHT22;18955;51.224;8.482;2023-07-09T14:54:21;26.50;58.60
32506;DHT22;18955;51.224;8.482;2023-07-09T14:56:49;26.40;59.20
32506;DHT22;18955;51.224;8.482;2023-07-09T14:59:16;26.40;59.40
32506;DHT22;18955;51.224;8.482;2023-07-09T15:01:43;26.40;59.70
32506;DHT22;18955;51.224;8.482;2023-07-09T15:04:31;26.30;60.10
32506;DHT22;18955;51.224;8.482;2023-07-09T15:06:58;26.20;60.20
32506;DHT22;18955;51.224;8.482;2023-07-09T15:09:26;26.20;60.10
32506;DHT22;18955;51.224;8.482;2023-07-09T15:11:56;26.10;60.30
32506;DHT22;18955;51.224;8.482;2023-07-09T15:14:25;26.10;60.40
32506;DHT22;18955;51.224;8.482;2023-07-09T15:16:52;26.10;60.40
32506;DHT22;18955;51.224;8.482;2023-07-09T15:19:20;26.20;60.40
32506;DHT22;18955;51.224;8.482;2023-07-09T15:21:48;26.20;60.70
32506;DHT22;18955;51.224;8.482;2023-07-09T15:24:35;26.30;61.10
32506;DHT22;18955;51.224;8.482;2023-07-09T15:27:02;26.30;61.10
32506;DHT22;18955;51.224;8.482;2023-07-09T15:29:30;26.30;61.00
32506;DHT22;18955;51.224;8.482;2023-07-09T15:31:58;26.30;61.00
32506;DHT22;18955;51.224;8.482;2023-07-09T15:34:24;26.40;61.10
32506;DHT22;18955;51.224;8.482;2023-07-09T15:36:52;26.30;61.00
32506;DHT22;18955;51.224;8.482;2023-07-09T15:39:19;26.30;61.00
32506;DHT22;18955;51.224;8.482;2023-07-09T15:41:46;26.30;61.20
32506;DHT22;18955;51.224;8.482;2023-07-09T15:44:13;26.30;61.40
32506;DHT22;18955;51.224;8.482;2023-07-09T15:46:42;26.30;61.40
32506;DHT22;18955;51.224;8.482;2023-07-09T15:49:11;26.30;62.00
32506;DHT22;18955;51.224;8.482;2023-07-09T15:51:39;26.30;61.50
32506;DHT22;18955;51.224;8.482;2023-07-09T15:54:15;26.30;61.60
32506;DHT22;18955;51.224;8.482;2023-07-09T15:56:42;26.30;61.60
32506;DHT22;18955;51.224;8.482;2023-07-09T15:59:29;26.30;61.90
32506;DHT22;18955;51.224;8.482;2023-07-09T16:01:57;26.30;61.90
32506;DHT22;18955;51.224;8.482;2023-07-09T16:04:24;26.30;61.90
32506;DHT22;18955;51.224;8.482;2023-07-09T16:06:50;26.20;61.90
32506;DHT22;18955;51.224;8.482;2023-07-09T16:09:16;26.20;61.90
32506;DHT22;18955;51.224;8.482;2023-07-09T16:11:45;26.20;61.90
32506;DHT22;18955;51.224;8.482;2023-07-09T16:14:24;26.20;62.70
32506;DHT22;18955;51.224;8.482;2023-07-09T16:16:54;26.20;62.30
32506;DHT22;18955;51.224;8.482;2023-07-09T16:19:23;26.20;62.30